sensor_id;sensor_type;location;lat;lon;timestamp;P1;durP1;ratioP1;P2;durP2;ratioP2
73850;SDS011;62190;51.548;5.688;2023-03-07T00:01:47;13.00;;;7.67;;
73850;SDS011;62190;51.548;5.688;2023-03-07T00:04:15;10.55;;;6.40;;
73850;SDS011;62190;51.548;5.688;2023-03-07T00:06:44;10.82;;;6.53;;
73850;SDS011;62190;51.548;5.688;2023-03-07T00:09:11;11.28;;;6.80;;
73850;SDS011;62190;51.548;5.688;2023-03-07T00:11:38;9.95;;;6.03;;
73850;SDS011;62190;51.548;5.688;2023-03-07T00:14:06;10.10;;;5.67;;
73850;SDS011;62190;51.548;5.688;2023-03-07T00:16:34;12.18;;;5.75;;
73850;SDS011;62190;51.548;5.688;2023-03-07T00:19:01;13.88;;;5.87;;
73850;SDS011;62190;51.548;5.688;2023-03-07T00:21:29;9.43;;;5.17;;
73850;SDS011;62190;51.548;5.688;2023-03-07T00:23:56;6.92;;;4.12;;
73850;SDS011;62190;51.548;5.688;2023-03-07T00:26:25;6.65;;;4.20;;
73850;SDS011;62190;51.548;5.688;2023-03-07T00:28:52;7.10;;;4.00;;
73850;SDS011;62190;51.548;5.688;2023-03-07T00:31:20;7.08;;;4.00;;
73850;SDS011;62190;51.548;5.688;2023-03-07T00:33:48;5.12;;;2.90;;
73850;SDS011;62190;51.548;5.688;2023-03-07T00:36:20;5.85;;;3.08;;
73850;SDS011;62190;51.548;5.688;2023-03-07T00:38:48;6.42;;;2.90;;
73850;SDS011;62190;51.548;5.688;2023-03-07T00:41:22;4.92;;;2.65;;
73850;SDS011;62190;51.548;5.688;2023-03-07T00:43:52;5.10;;;2.50;;
73850;SDS011;62190;51.548;5.688;2023-03-07T00:46:20;4.67;;;2.10;;
73850;SDS011;62190;51.548;5.688;2023-03-07T00:48:49;3.85;;;2.65;;
73850;SDS011;62190;51.548;5.688;2023-03-07T00:51:18;3.80;;;1.82;;
73850;SDS011;62190;51.548;5.688;2023-03-07T00:53:46;2.62;;;1.60;;
73850;SDS011;62190;51.548;5.688;2023-03-07T00:56:19;3.60;;;1.62;;
73850;SDS011;62190;51.548;5.688;2023-03-07T00:58:44;3.42;;;1.57;;
73850;SDS011;62190;51.548;5.688;2023-03-07T01:01:13;3.58;;;1.50;;
73850;SDS011;62190;51.548;5.688;2023-03-07T01:03:42;2.95;;;1.30;;
73850;SDS011;62190;51.548;5.688;2023-03-07T01:06:13;2.95;;;1.70;;
73850;SDS011;62190;51.548;5.688;2023-03-07T01:08:41;5.22;;;1.37;;
73850;SDS011;62190;51.548;5.688;2023-03-07T01:11:09;2.10;;;1.02;;
73850;SDS011;62190;51.548;5.688;2023-03-07T01:13:37;3.12;;;1.05;;
73850;SDS011;62190;51.548;5.688;2023-03-07T01:18:41;4.05;;;1.60;;
73850;SDS011;62190;51.548;5.688;2023-03-07T01:21:13;3.83;;;1.50;;
73850;SDS011;62190;51.548;5.688;2023-03-07T01:23:42;3.22;;;1.20;;
73850;SDS011;62190;51.548;5.688;2023-03-07T01:26:15;2.90;;;1.30;;
73850;SDS011;62190;51.548;5.688;2023-03-07T01:28:39;5.22;;;1.70;;
73850;SDS011;62190;51.548;5.688;2023-03-07T01:31:07;3.25;;;1.70;;
73850;SDS011;62190;51.548;5.688;2023-03-07T01:33:34;6.20;;;2.35;;
73850;SDS011;62190;51.548;5.688;2023-03-07T01:36:03;7.17;;;2.27;;
73850;SDS011;62190;51.548;5.688;2023-03-07T01:38:31;5.05;;;2.22;;
73850;SDS011;62190;51.548;5.688;2023-03-07T01:41:03;5.58;;;2.52;;
73850;SDS011;62190;51.548;5.688;2023-03-07T01:43:28;6.28;;;3.00;;
73850;SDS011;62190;51.548;5.688;2023-03-07T01:49:32;8.88;;;3.37;;
73850;SDS011;62190;51.548;5.688;2023-03-07T01:51:19;5.97;;;2.98;;
73850;SDS011;62190;51.548;5.688;2023-03-07T01:53:50;6.83;;;2.80;;
73850;SDS011;62190;51.548;5.688;2023-03-07T01:56:18;4.83;;;2.65;;
73850;SDS011;62190;51.548;5.688;2023-03-07T01:58:48;6.55;;;4.00;;
73850;SDS011;62190;51.548;5.688;2023-03-07T02:01:16;6.33;;;3.33;;
73850;SDS011;62190;51.548;5.688;2023-03-07T02:03:50;6.28;;;3.47;;
73850;SDS011;62190;51.548;5.688;2023-03-07T02:06:30;6.12;;;3.52;;
73850;SDS011;62190;51.548;5.688;2023-03-07T02:08:59;8.08;;;3.55;;
73850;SDS011;62190;51.548;5.688;2023-03-07T02:11:28;7.97;;;4.45;;
73850;SDS011;62190;51.548;5.688;2023-03-07T02:13:56;9.70;;;4.05;;
73850;SDS011;62190;51.548;5.688;2023-03-07T02:16:23;8.88;;;4.65;;
73850;SDS011;62190;51.548;5.688;2023-03-07T02:18:51;9.10;;;4.45;;
73850;SDS011;62190;51.548;5.688;2023-03-07T02:21:25;10.65;;;4.22;;
73850;SDS011;62190;51.548;5.688;2023-03-07T02:24:19;10.25;;;4.80;;
73850;SDS011;62190;51.548;5.688;2023-03-07T02:26:50;8.15;;;4.78;;
73850;SDS011;62190;51.548;5.688;2023-03-07T02:29:18;10.93;;;5.65;;
73850;SDS011;62190;51.548;5.688;2023-03-07T02:31:46;9.58;;;5.30;;
73850;SDS011;62190;51.548;5.688;2023-03-07T02:34:17;12.13;;;5.60;;
73850;SDS011;62190;51.548;5.688;2023-03-07T02:36:58;10.20;;;5.92;;
73850;SDS011;62190;51.548;5.688;2023-03-07T02:39:27;13.13;;;6.33;;
73850;SDS011;62190;51.548;5.688;2023-03-07T02:42:01;9.58;;;5.55;;
73850;SDS011;62190;51.548;5.688;2023-03-07T02:44:24;11.35;;;6.20;;
73850;SDS011;62190;51.548;5.688;2023-03-07T02:46:52;11.63;;;5.15;;
73850;SDS011;62190;51.548;5.688;2023-03-07T02:49:19;10.70;;;5.45;;
73850;SDS011;62190;51.548;5.688;2023-03-07T02:51:46;11.35;;;5.92;;
73850;SDS011;62190;51.548;5.688;2023-03-07T02:54:14;11.45;;;5.45;;
73850;SDS011;62190;51.548;5.688;2023-03-07T02:56:41;9.85;;;4.92;;
73850;SDS011;62190;51.548;5.688;2023-03-07T02:59:08;8.83;;;5.22;;
73850;SDS011;62190;51.548;5.688;2023-03-07T03:01:36;9.15;;;5.35;;
73850;SDS011;62190;51.548;5.688;2023-03-07T03:04:03;10.30;;;4.87;;
73850;SDS011;62190;51.548;5.688;2023-03-07T03:06:30;10.18;;;5.60;;
73850;SDS011;62190;51.548;5.688;2023-03-07T03:08:58;9.55;;;5.03;;
73850;SDS011;62190;51.548;5.688;2023-03-07T03:11:25;8.13;;;4.72;;
73850;SDS011;62190;51.548;5.688;2023-03-07T03:13:52;6.10;;;3.52;;
73850;SDS011;62190;51.548;5.688;2023-03-07T03:16:20;8.75;;;4.47;;
73850;SDS011;62190;51.548;5.688;2023-03-07T03:18:47;13.18;;;4.60;;
73850;SDS011;62190;51.548;5.688;2023-03-07T03:21:14;13.00;;;4.83;;
73850;SDS011;62190;51.548;5.688;2023-03-07T03:23:41;11.75;;;4.58;;
73850;SDS011;62190;51.548;5.688;2023-03-07T03:26:09;11.00;;;5.62;;
73850;SDS011;62190;51.548;5.688;2023-03-07T03:28:37;10.15;;;4.70;;
73850;SDS011;62190;51.548;5.688;2023-03-07T03:31:06;9.38;;;4.70;;
73850;SDS011;62190;51.548;5.688;2023-03-07T03:33:38;7.97;;;4.37;;
73850;SDS011;62190;51.548;5.688;2023-03-07T03:36:07;8.30;;;4.92;;
73850;SDS011;62190;51.548;5.688;2023-03-07T03:38:36;8.18;;;4.47;;
73850;SDS011;62190;51.548;5.688;2023-03-07T03:41:04;8.78;;;4.97;;
73850;SDS011;62190;51.548;5.688;2023-03-07T03:43:33;6.92;;;4.15;;
73850;SDS011;62190;51.548;5.688;2023-03-07T03:46:01;11.78;;;5.35;;
73850;SDS011;62190;51.548;5.688;2023-03-07T03:48:31;9.58;;;4.97;;
73850;SDS011;62190;51.548;5.688;2023-03-07T03:50:59;9.43;;;5.12;;
73850;SDS011;62190;51.548;5.688;2023-03-07T03:53:31;9.75;;;5.25;;
73850;SDS011;62190;51.548;5.688;2023-03-07T03:56:08;9.13;;;4.12;;
73850;SDS011;62190;51.548;5.688;2023-03-07T03:58:33;7.60;;;4.50;;
73850;SDS011;62190;51.548;5.688;2023-03-07T04:01:01;9.25;;;4.83;;
73850;SDS011;62190;51.548;5.688;2023-03-07T04:03:36;11.12;;;5.10;;
73850;SDS011;62190;51.548;5.688;2023-03-07T04:06:00;9.35;;;4.75;;
73850;SDS011;62190;51.548;5.688;2023-03-07T04:08:32;10.13;;;4.47;;
73850;SDS011;62190;51.548;5.688;2023-03-07T04:11:01;11.22;;;5.83;;
73850;SDS011;62190;51.548;5.688;2023-03-07T04:13:29;9.13;;;4.55;;
73850;SDS011;62190;51.548;5.688;2023-03-07T04:15:57;9.30;;;4.53;;
73850;SDS011;62190;51.548;5.688;2023-03-07T04:18:24;8.18;;;4.67;;
73850;SDS011;62190;51.548;5.688;2023-03-07T04:20:52;8.63;;;4.60;;
73850;SDS011;62190;51.548;5.688;2023-03-07T04:23:20;8.38;;;4.95;;
73850;SDS011;62190;51.548;5.688;2023-03-07T04:25:49;6.00;;;3.55;;
73850;SDS011;62190;51.548;5.688;2023-03-07T04:28:22;6.87;;;3.45;;
73850;SDS011;62190;51.548;5.688;2023-03-07T04:30:51;6.15;;;3.83;;
73850;SDS011;62190;51.548;5.688;2023-03-07T04:33:18;7.25;;;4.00;;
73850;SDS011;62190;51.548;5.688;2023-03-07T04:35:46;7.30;;;3.52;;
73850;SDS011;62190;51.548;5.688;2023-03-07T04:38:14;6.72;;;3.40;;
73850;SDS011;62190;51.548;5.688;2023-03-07T04:40:41;7.83;;;3.77;;
73850;SDS011;62190;51.548;5.688;2023-03-07T04:43:08;7.03;;;3.92;;
73850;SDS011;62190;51.548;5.688;2023-03-07T04:45:36;7.55;;;4.03;;
73850;SDS011;62190;51.548;5.688;2023-03-07T04:48:03;8.10;;;4.30;;
73850;SDS011;62190;51.548;5.688;2023-03-07T04:50:30;7.87;;;3.72;;
73850;SDS011;62190;51.548;5.688;2023-03-07T04:52:58;8.05;;;4.12;;
73850;SDS011;62190;51.548;5.688;2023-03-07T04:55:25;8.50;;;3.58;;
73850;SDS011;62190;51.548;5.688;2023-03-07T04:57:53;6.10;;;3.17;;
73850;SDS011;62190;51.548;5.688;2023-03-07T05:00:22;5.30;;;2.62;;
73850;SDS011;62190;51.548;5.688;2023-03-07T05:02:49;7.58;;;3.58;;
73850;SDS011;62190;51.548;5.688;2023-03-07T05:05:16;6.50;;;3.47;;
73850;SDS011;62190;51.548;5.688;2023-03-07T05:07:44;6.35;;;3.42;;
73850;SDS011;62190;51.548;5.688;2023-03-07T05:10:11;7.30;;;3.62;;
73850;SDS011;62190;51.548;5.688;2023-03-07T05:12:38;7.75;;;3.52;;
73850;SDS011;62190;51.548;5.688;2023-03-07T05:15:06;7.97;;;3.80;;
73850;SDS011;62190;51.548;5.688;2023-03-07T05:17:34;8.38;;;3.40;;
73850;SDS011;62190;51.548;5.688;2023-03-07T05:20:01;8.00;;;4.05;;
73850;SDS011;62190;51.548;5.688;2023-03-07T05:22:29;10.35;;;4.42;;
73850;SDS011;62190;51.548;5.688;2023-03-07T05:24:56;6.20;;;3.42;;
73850;SDS011;62190;51.548;5.688;2023-03-07T05:27:24;9.05;;;4.65;;
73850;SDS011;62190;51.548;5.688;2023-03-07T05:29:51;9.85;;;3.87;;
73850;SDS011;62190;51.548;5.688;2023-03-07T05:32:19;7.20;;;3.77;;
73850;SDS011;62190;51.548;5.688;2023-03-07T05:34:46;12.07;;;4.62;;
73850;SDS011;62190;51.548;5.688;2023-03-07T05:37:15;8.18;;;4.42;;
73850;SDS011;62190;51.548;5.688;2023-03-07T05:39:43;8.98;;;4.55;;
73850;SDS011;62190;51.548;5.688;2023-03-07T05:42:10;8.95;;;4.12;;
73850;SDS011;62190;51.548;5.688;2023-03-07T05:44:38;8.15;;;4.08;;
73850;SDS011;62190;51.548;5.688;2023-03-07T05:47:05;8.33;;;4.08;;
73850;SDS011;62190;51.548;5.688;2023-03-07T05:49:32;8.58;;;4.25;;
73850;SDS011;62190;51.548;5.688;2023-03-07T05:52:00;7.78;;;4.03;;
73850;SDS011;62190;51.548;5.688;2023-03-07T05:54:29;7.95;;;4.30;;
73850;SDS011;62190;51.548;5.688;2023-03-07T05:56:56;10.03;;;4.97;;
73850;SDS011;62190;51.548;5.688;2023-03-07T05:59:23;14.28;;;5.22;;
73850;SDS011;62190;51.548;5.688;2023-03-07T06:01:52;7.92;;;4.20;;
73850;SDS011;62190;51.548;5.688;2023-03-07T06:04:19;10.82;;;4.60;;
73850;SDS011;62190;51.548;5.688;2023-03-07T06:06:48;11.25;;;5.15;;
73850;SDS011;62190;51.548;5.688;2023-03-07T06:09:15;10.43;;;4.28;;
73850;SDS011;62190;51.548;5.688;2023-03-07T06:11:42;8.88;;;4.22;;
73850;SDS011;62190;51.548;5.688;2023-03-07T06:14:10;10.40;;;5.17;;
73850;SDS011;62190;51.548;5.688;2023-03-07T06:16:37;9.65;;;4.60;;
73850;SDS011;62190;51.548;5.688;2023-03-07T06:19:04;9.90;;;4.97;;
73850;SDS011;62190;51.548;5.688;2023-03-07T06:21:32;8.10;;;4.45;;
73850;SDS011;62190;51.548;5.688;2023-03-07T06:23:59;8.88;;;4.60;;
73850;SDS011;62190;51.548;5.688;2023-03-07T06:26:28;10.90;;;4.90;;
73850;SDS011;62190;51.548;5.688;2023-03-07T06:28:55;9.28;;;5.28;;
73850;SDS011;62190;51.548;5.688;2023-03-07T06:31:24;6.78;;;3.80;;
73850;SDS011;62190;51.548;5.688;2023-03-07T06:33:52;9.98;;;4.05;;
73850;SDS011;62190;51.548;5.688;2023-03-07T06:36:20;9.05;;;3.30;;
73850;SDS011;62190;51.548;5.688;2023-03-07T06:38:48;9.05;;;3.67;;
73850;SDS011;62190;51.548;5.688;2023-03-07T06:41:15;4.10;;;2.20;;
73850;SDS011;62190;51.548;5.688;2023-03-07T06:43:42;4.60;;;2.52;;
73850;SDS011;62190;51.548;5.688;2023-03-07T06:46:09;6.70;;;3.08;;
73850;SDS011;62190;51.548;5.688;2023-03-07T06:48:37;5.00;;;2.45;;
73850;SDS011;62190;51.548;5.688;2023-03-07T06:51:07;6.70;;;2.75;;
73850;SDS011;62190;51.548;5.688;2023-03-07T06:53:35;6.45;;;3.65;;
73850;SDS011;62190;51.548;5.688;2023-03-07T06:56:03;6.17;;;3.60;;
73850;SDS011;62190;51.548;5.688;2023-03-07T06:58:30;5.50;;;2.52;;
73850;SDS011;62190;51.548;5.688;2023-03-07T07:00:58;5.85;;;2.85;;
73850;SDS011;62190;51.548;5.688;2023-03-07T07:03:25;6.05;;;3.35;;
73850;SDS011;62190;51.548;5.688;2023-03-07T07:05:52;6.83;;;3.22;;
73850;SDS011;62190;51.548;5.688;2023-03-07T07:08:19;6.47;;;3.10;;
73850;SDS011;62190;51.548;5.688;2023-03-07T07:10:48;5.97;;;3.27;;
73850;SDS011;62190;51.548;5.688;2023-03-07T07:13:16;6.22;;;3.15;;
73850;SDS011;62190;51.548;5.688;2023-03-07T07:15:43;7.28;;;3.45;;
73850;SDS011;62190;51.548;5.688;2023-03-07T07:18:11;10.38;;;4.40;;
73850;SDS011;62190;51.548;5.688;2023-03-07T07:20:38;8.13;;;3.33;;
73850;SDS011;62190;51.548;5.688;2023-03-07T07:23:06;10.78;;;5.40;;
73850;SDS011;62190;51.548;5.688;2023-03-07T07:25:33;13.43;;;5.83;;
73850;SDS011;62190;51.548;5.688;2023-03-07T07:28:01;9.05;;;4.90;;
73850;SDS011;62190;51.548;5.688;2023-03-07T07:30:28;9.95;;;5.35;;
73850;SDS011;62190;51.548;5.688;2023-03-07T07:32:55;11.20;;;5.40;;
73850;SDS011;62190;51.548;5.688;2023-03-07T07:35:22;10.15;;;5.30;;
73850;SDS011;62190;51.548;5.688;2023-03-07T07:37:50;10.60;;;5.55;;
73850;SDS011;62190;51.548;5.688;2023-03-07T07:40:17;9.00;;;5.25;;
73850;SDS011;62190;51.548;5.688;2023-03-07T07:42:48;10.70;;;5.50;;
73850;SDS011;62190;51.548;5.688;2023-03-07T07:45:22;10.55;;;5.10;;
73850;SDS011;62190;51.548;5.688;2023-03-07T07:47:50;10.60;;;4.80;;
73850;SDS011;62190;51.548;5.688;2023-03-07T07:50:18;8.95;;;4.55;;
73850;SDS011;62190;51.548;5.688;2023-03-07T07:52:46;9.83;;;5.17;;
73850;SDS011;62190;51.548;5.688;2023-03-07T07:55:14;10.08;;;5.42;;
73850;SDS011;62190;51.548;5.688;2023-03-07T07:57:41;10.08;;;5.42;;
73850;SDS011;62190;51.548;5.688;2023-03-07T08:00:09;10.82;;;5.12;;
73850;SDS011;62190;51.548;5.688;2023-03-07T08:02:38;10.50;;;5.30;;
73850;SDS011;62190;51.548;5.688;2023-03-07T08:05:06;11.55;;;5.55;;
73850;SDS011;62190;51.548;5.688;2023-03-07T08:07:35;9.58;;;5.28;;
73850;SDS011;62190;51.548;5.688;2023-03-07T08:10:02;10.10;;;5.83;;
73850;SDS011;62190;51.548;5.688;2023-03-07T08:12:30;14.35;;;7.08;;
73850;SDS011;62190;51.548;5.688;2023-03-07T08:14:57;17.87;;;7.67;;
73850;SDS011;62190;51.548;5.688;2023-03-07T08:17:25;12.20;;;6.55;;
73850;SDS011;62190;51.548;5.688;2023-03-07T08:19:54;12.53;;;6.53;;
73850;SDS011;62190;51.548;5.688;2023-03-07T08:22:23;12.75;;;6.85;;
73850;SDS011;62190;51.548;5.688;2023-03-07T08:24:50;10.78;;;6.10;;
73850;SDS011;62190;51.548;5.688;2023-03-07T08:27:17;14.58;;;7.12;;
73850;SDS011;62190;51.548;5.688;2023-03-07T08:29:49;14.38;;;8.00;;
73850;SDS011;62190;51.548;5.688;2023-03-07T08:32:14;15.05;;;7.17;;
73850;SDS011;62190;51.548;5.688;2023-03-07T08:34:41;13.78;;;7.55;;
73850;SDS011;62190;51.548;5.688;2023-03-07T08:37:08;17.85;;;8.38;;
73850;SDS011;62190;51.548;5.688;2023-03-07T08:39:36;17.85;;;8.58;;
73850;SDS011;62190;51.548;5.688;2023-03-07T08:42:03;22.10;;;9.88;;
73850;SDS011;62190;51.548;5.688;2023-03-07T08:44:31;18.35;;;9.70;;
73850;SDS011;62190;51.548;5.688;2023-03-07T08:46:58;18.15;;;9.98;;
73850;SDS011;62190;51.548;5.688;2023-03-07T08:49:26;14.23;;;7.90;;
73850;SDS011;62190;51.548;5.688;2023-03-07T08:51:53;22.62;;;10.05;;
73850;SDS011;62190;51.548;5.688;2023-03-07T08:54:20;17.00;;;8.88;;
73850;SDS011;62190;51.548;5.688;2023-03-07T08:56:47;29.50;;;11.12;;
73850;SDS011;62190;51.548;5.688;2023-03-07T08:59:15;17.27;;;9.20;;
73850;SDS011;62190;51.548;5.688;2023-03-07T09:01:42;14.55;;;7.78;;
73850;SDS011;62190;51.548;5.688;2023-03-07T09:04:09;18.60;;;8.65;;
73850;SDS011;62190;51.548;5.688;2023-03-07T09:06:37;15.05;;;7.90;;
73850;SDS011;62190;51.548;5.688;2023-03-07T09:09:04;16.57;;;8.53;;
73850;SDS011;62190;51.548;5.688;2023-03-07T09:11:33;15.90;;;8.33;;
73850;SDS011;62190;51.548;5.688;2023-03-07T09:14:00;14.55;;;7.80;;
73850;SDS011;62190;51.548;5.688;2023-03-07T09:16:28;15.75;;;7.70;;
73850;SDS011;62190;51.548;5.688;2023-03-07T09:18:55;16.00;;;8.05;;
73850;SDS011;62190;51.548;5.688;2023-03-07T09:21:22;17.77;;;9.88;;
73850;SDS011;62190;51.548;5.688;2023-03-07T09:23:50;14.75;;;7.12;;
73850;SDS011;62190;51.548;5.688;2023-03-07T09:26:17;16.52;;;8.50;;
73850;SDS011;62190;51.548;5.688;2023-03-07T09:28:44;14.58;;;8.05;;
73850;SDS011;62190;51.548;5.688;2023-03-07T09:31:12;19.07;;;10.40;;
73850;SDS011;62190;51.548;5.688;2023-03-07T09:33:40;19.67;;;9.33;;
73850;SDS011;62190;51.548;5.688;2023-03-07T09:36:09;17.42;;;9.18;;
73850;SDS011;62190;51.548;5.688;2023-03-07T09:38:37;14.35;;;7.97;;
73850;SDS011;62190;51.548;5.688;2023-03-07T09:41:13;16.00;;;9.03;;
73850;SDS011;62190;51.548;5.688;2023-03-07T09:46:42;12.98;;;6.75;;
73850;SDS011;62190;51.548;5.688;2023-03-07T09:49:24;13.70;;;7.47;;
73850;SDS011;62190;51.548;5.688;2023-03-07T09:51:54;13.88;;;7.83;;
73850;SDS011;62190;51.548;5.688;2023-03-07T09:54:25;14.95;;;7.67;;
73850;SDS011;62190;51.548;5.688;2023-03-07T09:56:54;13.60;;;8.28;;
73850;SDS011;62190;51.548;5.688;2023-03-07T09:59:35;11.83;;;6.35;;
73850;SDS011;62190;51.548;5.688;2023-03-07T10:02:20;12.95;;;7.50;;
73850;SDS011;62190;51.548;5.688;2023-03-07T10:07:43;15.40;;;8.35;;
73850;SDS011;62190;51.548;5.688;2023-03-07T10:10:13;14.58;;;8.48;;
73850;SDS011;62190;51.548;5.688;2023-03-07T10:18:08;16.32;;;9.38;;
73850;SDS011;62190;51.548;5.688;2023-03-07T10:20:47;14.18;;;8.58;;
73850;SDS011;62190;51.548;5.688;2023-03-07T10:26:27;13.98;;;7.83;;
73850;SDS011;62190;51.548;5.688;2023-03-07T10:28:59;12.50;;;7.20;;
73850;SDS011;62190;51.548;5.688;2023-03-07T10:31:32;11.93;;;6.97;;
73850;SDS011;62190;51.548;5.688;2023-03-07T10:34:16;12.03;;;6.58;;
73850;SDS011;62190;51.548;5.688;2023-03-07T10:36:59;11.40;;;7.05;;
73850;SDS011;62190;51.548;5.688;2023-03-07T10:39:39;13.32;;;7.95;;
73850;SDS011;62190;51.548;5.688;2023-03-07T10:42:21;11.90;;;7.95;;
73850;SDS011;62190;51.548;5.688;2023-03-07T10:44:52;26.15;;;10.40;;
73850;SDS011;62190;51.548;5.688;2023-03-07T10:47:22;12.75;;;7.60;;
73850;SDS011;62190;51.548;5.688;2023-03-07T10:49:53;17.10;;;9.60;;
73850;SDS011;62190;51.548;5.688;2023-03-07T10:52:31;14.75;;;8.45;;
73850;SDS011;62190;51.548;5.688;2023-03-07T11:00:57;13.62;;;8.30;;
73850;SDS011;62190;51.548;5.688;2023-03-07T11:08:54;14.75;;;9.40;;
73850;SDS011;62190;51.548;5.688;2023-03-07T11:11:30;14.50;;;8.25;;
73850;SDS011;62190;51.548;5.688;2023-03-07T11:14:04;11.63;;;7.42;;
73850;SDS011;62190;51.548;5.688;2023-03-07T11:16:39;14.25;;;7.90;;
73850;SDS011;62190;51.548;5.688;2023-03-07T11:21:56;10.95;;;6.15;;
73850;SDS011;62190;51.548;5.688;2023-03-07T11:24:25;19.23;;;7.42;;
73850;SDS011;62190;51.548;5.688;2023-03-07T11:26:57;8.63;;;5.05;;
73850;SDS011;62190;51.548;5.688;2023-03-07T11:29:25;8.05;;;5.22;;
73850;SDS011;62190;51.548;5.688;2023-03-07T11:31:59;10.10;;;6.00;;
73850;SDS011;62190;51.548;5.688;2023-03-07T11:34:39;8.40;;;5.15;;
73850;SDS011;62190;51.548;5.688;2023-03-07T11:42:59;6.95;;;4.62;;
73850;SDS011;62190;51.548;5.688;2023-03-07T11:45:35;7.08;;;4.12;;
73850;SDS011;62190;51.548;5.688;2023-03-07T11:48:12;7.22;;;4.37;;
73850;SDS011;62190;51.548;5.688;2023-03-07T11:50:42;7.17;;;4.72;;
73850;SDS011;62190;51.548;5.688;2023-03-07T11:58:44;7.55;;;5.05;;
73850;SDS011;62190;51.548;5.688;2023-03-07T12:01:21;7.60;;;4.87;;
73850;SDS011;62190;51.548;5.688;2023-03-07T12:04:49;6.85;;;4.12;;
73850;SDS011;62190;51.548;5.688;2023-03-07T12:09:17;7.72;;;4.62;;
73850;SDS011;62190;51.548;5.688;2023-03-07T12:14:37;6.40;;;4.00;;
73850;SDS011;62190;51.548;5.688;2023-03-07T12:22:43;5.28;;;3.00;;
73850;SDS011;62190;51.548;5.688;2023-03-07T12:25:35;5.55;;;3.30;;
73850;SDS011;62190;51.548;5.688;2023-03-07T12:31:15;5.03;;;3.25;;
73850;SDS011;62190;51.548;5.688;2023-03-07T12:33:58;5.12;;;3.00;;
73850;SDS011;62190;51.548;5.688;2023-03-07T12:39:48;6.30;;;3.50;;
73850;SDS011;62190;51.548;5.688;2023-03-07T12:42:04;6.05;;;3.90;;
73850;SDS011;62190;51.548;5.688;2023-03-07T12:47:28;4.60;;;3.10;;
73850;SDS011;62190;51.548;5.688;2023-03-07T12:50:08;4.70;;;2.87;;
73850;SDS011;62190;51.548;5.688;2023-03-07T12:52:45;5.05;;;3.15;;
73850;SDS011;62190;51.548;5.688;2023-03-07T12:55:24;5.37;;;3.12;;
73850;SDS011;62190;51.548;5.688;2023-03-07T13:00:29;5.60;;;3.33;;
73850;SDS011;62190;51.548;5.688;2023-03-07T13:03:02;4.70;;;2.80;;
73850;SDS011;62190;51.548;5.688;2023-03-07T13:05:26;4.58;;;2.47;;
73850;SDS011;62190;51.548;5.688;2023-03-07T13:07:56;7.40;;;3.58;;
73850;SDS011;62190;51.548;5.688;2023-03-07T13:10:23;4.75;;;2.90;;
73850;SDS011;62190;51.548;5.688;2023-03-07T13:12:51;5.55;;;3.02;;
73850;SDS011;62190;51.548;5.688;2023-03-07T13:17:56;5.90;;;3.42;;
73850;SDS011;62190;51.548;5.688;2023-03-07T13:22:59;5.30;;;2.80;;
73850;SDS011;62190;51.548;5.688;2023-03-07T13:28:02;6.65;;;3.25;;
73850;SDS011;62190;51.548;5.688;2023-03-07T13:30:31;7.60;;;4.90;;
73850;SDS011;62190;51.548;5.688;2023-03-07T13:32:59;4.87;;;3.08;;
73850;SDS011;62190;51.548;5.688;2023-03-07T13:40:52;8.05;;;4.70;;
73850;SDS011;62190;51.548;5.688;2023-03-07T13:45:59;9.35;;;4.92;;
73850;SDS011;62190;51.548;5.688;2023-03-07T13:51:02;10.45;;;5.67;;
73850;SDS011;62190;51.548;5.688;2023-03-07T13:53:49;10.65;;;5.50;;
73850;SDS011;62190;51.548;5.688;2023-03-07T13:56:22;14.47;;;7.28;;
73850;SDS011;62190;51.548;5.688;2023-03-07T13:58:52;13.35;;;6.65;;
73850;SDS011;62190;51.548;5.688;2023-03-07T14:04:12;10.78;;;5.85;;
73850;SDS011;62190;51.548;5.688;2023-03-07T14:06:55;21.35;;;11.08;;
73850;SDS011;62190;51.548;5.688;2023-03-07T14:09:54;45.45;;;17.42;;
73850;SDS011;62190;51.548;5.688;2023-03-07T14:15:00;18.98;;;10.28;;
73850;SDS011;62190;51.548;5.688;2023-03-07T14:23:22;23.42;;;13.30;;
73850;SDS011;62190;51.548;5.688;2023-03-07T14:25:54;28.02;;;16.52;;
73850;SDS011;62190;51.548;5.688;2023-03-07T14:28:29;23.35;;;12.20;;
73850;SDS011;62190;51.548;5.688;2023-03-07T14:31:02;25.30;;;12.88;;
73850;SDS011;62190;51.548;5.688;2023-03-07T14:33:32;23.05;;;12.23;;
73850;SDS011;62190;51.548;5.688;2023-03-07T14:36:13;19.70;;;10.82;;
73850;SDS011;62190;51.548;5.688;2023-03-07T14:38:43;20.57;;;10.98;;
73850;SDS011;62190;51.548;5.688;2023-03-07T14:41:17;19.35;;;10.53;;
73850;SDS011;62190;51.548;5.688;2023-03-07T14:44:02;17.67;;;10.35;;
73850;SDS011;62190;51.548;5.688;2023-03-07T14:46:47;20.23;;;10.70;;
73850;SDS011;62190;51.548;5.688;2023-03-07T14:50:19;22.05;;;11.83;;
73850;SDS011;62190;51.548;5.688;2023-03-07T14:51:57;18.57;;;11.00;;
73850;SDS011;62190;51.548;5.688;2023-03-07T14:54:25;18.45;;;10.53;;
73850;SDS011;62190;51.548;5.688;2023-03-07T14:56:54;20.60;;;12.55;;
73850;SDS011;62190;51.548;5.688;2023-03-07T14:59:21;19.73;;;11.68;;
73850;SDS011;62190;51.548;5.688;2023-03-07T15:01:50;11.45;;;5.22;;
73850;SDS011;62190;51.548;5.688;2023-03-07T15:06:56;4.78;;;0.85;;
73850;SDS011;62190;51.548;5.688;2023-03-07T15:09:27;5.20;;;0.90;;
73850;SDS011;62190;51.548;5.688;2023-03-07T15:14:37;6.42;;;1.45;;
73850;SDS011;62190;51.548;5.688;2023-03-07T15:17:05;2.55;;;0.88;;
73850;SDS011;62190;51.548;5.688;2023-03-07T15:19:36;4.05;;;1.20;;
73850;SDS011;62190;51.548;5.688;2023-03-07T15:22:34;4.05;;;1.27;;
73850;SDS011;62190;51.548;5.688;2023-03-07T15:25:14;6.30;;;1.45;;
73850;SDS011;62190;51.548;5.688;2023-03-07T15:27:45;3.83;;;1.35;;
73850;SDS011;62190;51.548;5.688;2023-03-07T15:30:22;4.47;;;1.30;;
73850;SDS011;62190;51.548;5.688;2023-03-07T15:33:02;5.65;;;1.40;;
73850;SDS011;62190;51.548;5.688;2023-03-07T15:35:31;3.02;;;1.65;;
73850;SDS011;62190;51.548;5.688;2023-03-07T15:37:59;4.65;;;2.42;;
73850;SDS011;62190;51.548;5.688;2023-03-07T15:40:32;5.35;;;2.30;;
73850;SDS011;62190;51.548;5.688;2023-03-07T15:45:33;3.52;;;2.37;;
73850;SDS011;62190;51.548;5.688;2023-03-07T15:48:08;5.37;;;2.95;;
73850;SDS011;62190;51.548;5.688;2023-03-07T15:50:37;7.00;;;2.40;;
73850;SDS011;62190;51.548;5.688;2023-03-07T15:53:06;3.65;;;2.10;;
73850;SDS011;62190;51.548;5.688;2023-03-07T15:55:36;5.10;;;3.17;;
73850;SDS011;62190;51.548;5.688;2023-03-07T15:58:08;8.28;;;4.90;;
73850;SDS011;62190;51.548;5.688;2023-03-07T16:00:35;3.92;;;2.15;;
73850;SDS011;62190;51.548;5.688;2023-03-07T16:05:55;6.35;;;2.98;;
73850;SDS011;62190;51.548;5.688;2023-03-07T16:08:23;6.47;;;3.65;;
73850;SDS011;62190;51.548;5.688;2023-03-07T16:10:54;5.58;;;3.40;;
73850;SDS011;62190;51.548;5.688;2023-03-07T16:13:23;4.10;;;2.55;;
73850;SDS011;62190;51.548;5.688;2023-03-07T16:15:59;11.60;;;4.28;;
73850;SDS011;62190;51.548;5.688;2023-03-07T16:18:34;7.35;;;2.85;;
73850;SDS011;62190;51.548;5.688;2023-03-07T16:21:01;6.17;;;3.62;;
73850;SDS011;62190;51.548;5.688;2023-03-07T16:23:28;5.20;;;2.87;;
73850;SDS011;62190;51.548;5.688;2023-03-07T16:25:57;5.67;;;3.72;;
73850;SDS011;62190;51.548;5.688;2023-03-07T16:28:25;5.70;;;2.60;;
73850;SDS011;62190;51.548;5.688;2023-03-07T16:30:52;5.83;;;2.37;;
73850;SDS011;62190;51.548;5.688;2023-03-07T16:33:19;6.40;;;3.10;;
73850;SDS011;62190;51.548;5.688;2023-03-07T16:35:46;6.00;;;3.25;;
73850;SDS011;62190;51.548;5.688;2023-03-07T16:38:14;6.15;;;3.10;;
73850;SDS011;62190;51.548;5.688;2023-03-07T16:40:42;9.23;;;4.80;;
73850;SDS011;62190;51.548;5.688;2023-03-07T16:43:21;22.70;;;12.58;;
73850;SDS011;62190;51.548;5.688;2023-03-07T16:45:46;23.57;;;10.82;;